Time;durP1;ratioP1;P1;durP2;ratioP2;P2;SDS_P1;SDS_P2;PMS_P1;PMS_P2;Temp;Humidity;BMP_temperature;BMP_pressure;BME280_temperature;BME280_humidity;BME280_pressure;Samples;Min_cycle;Max_cycle;Signal;HPM_P1;HPM_P2
2021/12/16 00:06:44;;;;;;;;;;;19.90;57.80;;;;;;5007510;28;1522;-69
2021/12/16 00:08:57;;;;;;;;;;;19.90;57.80;;;;;;4990470;28;1483;-70
2021/12/16 00:20:19;;;;;;;;;;;19.90;57.90;;;;;;5001474;28;1176;-71
2021/12/16 00:31:03;;;;;;;;;;;19.80;57.90;;;;;;5000528;28;1106;-71
2021/12/16 00:33:37;;;;;;;;;;;19.80;57.90;;;;;;5004750;28;1304;-71
2021/12/16 00:36:02;;;;;;;;;;;19.80;58.00;;;;;;5013125;28;1253;-72
2021/12/16 00:38:28;;;;;;;;;;;19.80;58.00;;;;;;5013063;28;1906;-72
2021/12/16 00:40:55;;;;;;;;;;;19.80;58.00;;;;;;5000445;28;1076;-72
2021/12/16 00:43:33;;;;;;;;;;;19.70;58.00;;;;;;5012419;28;1267;-71
2021/12/16 00:54:15;;;;;;;;;;;19.80;58.10;;;;;;4986458;28;1183;-72
2021/12/16 00:56:44;;;;;;;;;;;19.70;58.10;;;;;;5003814;28;1080;-71
2021/12/16 00:59:12;;;;;;;;;;;19.70;58.10;;;;;;4992854;28;1890;-71
2021/12/16 01:01:46;;;;;;;;;;;19.70;58.10;;;;;;5002935;28;1286;-71
2021/12/16 01:07:07;;;;;;;;;;;19.70;58.10;;;;;;5012682;28;1378;-71
2021/12/16 01:10:19;;;;;;;;;;;19.70;58.20;;;;;;5008024;28;1020;-72
2021/12/16 01:34:28;;;;;;;;;;;19.70;58.30;;;;;;4997485;28;899;-72
2021/12/16 01:37:36;;;;;;;;;;;19.70;58.30;;;;;;5008993;28;1266;-71
2021/12/16 01:40:06;;;;;;;;;;;19.60;58.30;;;;;;5015877;28;1115;-72
2021/12/16 01:50:33;;;;;;;;;;;19.60;58.30;;;;;;5014826;28;1285;-71
2021/12/16 01:53:19;;;;;;;;;;;19.60;58.30;;;;;;5015734;28;1334;-72
2021/12/16 01:55:48;;;;;;;;;;;19.60;58.30;;;;;;4996342;28;1296;-72
2021/12/16 01:58:20;;;;;;;;;;;19.60;58.40;;;;;;5015325;28;1890;-72
2021/12/16 02:01:30;;;;;;;;;;;19.60;58.60;;;;;;5015418;28;1034;-72
2021/12/16 02:03:49;;;;;;;;;;;19.60;58.40;;;;;;5012137;28;1410;-72
2021/12/16 02:08:44;;;;;;;;;;;19.60;58.40;;;;;;4998352;28;1061;-72
2021/12/16 02:11:28;;;;;;;;;;;19.60;58.40;;;;;;5015309;28;1052;-72
2021/12/16 02:27:53;;;;;;;;;;;19.60;58.40;;;;;;4995506;28;1259;-72
2021/12/16 02:36:00;;;;;;;;;;;19.60;58.50;;;;;;5014994;28;1237;-71
2021/12/16 02:38:29;;;;;;;;;;;19.60;58.50;;;;;;5015128;28;1902;-72
2021/12/16 02:40:54;;;;;;;;;;;19.60;58.50;;;;;;4998256;28;1277;-73
2021/12/16 02:44:05;;;;;;;;;;;19.60;58.40;;;;;;4997629;28;1354;-73
2021/12/16 02:49:08;;;;;;;;;;;19.60;58.30;;;;;;4988271;28;1306;-72
2021/12/16 02:51:33;;;;;;;;;;;19.60;58.30;;;;;;5014836;28;2064;-72
2021/12/16 02:54:00;;;;;;;;;;;19.70;58.30;;;;;;4997430;28;1013;-73
2021/12/16 02:56:26;;;;;;;;;;;19.70;58.20;;;;;;4981141;28;1159;-72
2021/12/16 02:58:52;;;;;;;;;;;19.70;58.10;;;;;;5007083;28;1961;-71
2021/12/16 03:01:28;;;;;;;;;;;19.70;58.60;;;;;;5002405;28;1191;-72
2021/12/16 03:03:54;;;;;;;;;;;19.70;58.00;;;;;;5009165;28;1318;-73
2021/12/16 03:06:20;;;;;;;;;;;19.80;58.00;;;;;;4990639;28;1399;-72
2021/12/16 03:08:45;;;;;;;;;;;19.80;57.90;;;;;;5004700;28;1287;-73
2021/12/16 03:17:04;;;;;;;;;;;19.80;57.80;;;;;;5000329;28;1231;-73
2021/12/16 03:23:02;;;;;;;;;;;19.90;57.70;;;;;;4972592;28;1429;-72
2021/12/16 03:25:33;;;;;;;;;;;19.90;57.70;;;;;;5004896;28;1386;-73
2021/12/16 03:36:32;;;;;;;;;;;19.90;57.50;;;;;;5004542;28;1168;-72
2021/12/16 03:39:02;;;;;;;;;;;19.90;57.50;;;;;;5005886;28;1902;-73
2021/12/16 03:41:27;;;;;;;;;;;19.90;57.50;;;;;;5007767;28;1365;-72
2021/12/16 03:43:53;;;;;;;;;;;20.00;57.50;;;;;;5006016;28;1299;-71
2021/12/16 03:46:25;;;;;;;;;;;20.00;57.50;;;;;;5004872;28;1356;-73
2021/12/16 03:48:52;;;;;;;;;;;20.00;57.50;;;;;;5001126;28;1232;-72
2021/12/16 03:51:36;;;;;;;;;;;20.00;57.50;;;;;;5006168;28;1619;-73
2021/12/16 03:54:05;;;;;;;;;;;20.00;57.40;;;;;;5005348;28;1232;-72
2021/12/16 03:56:30;;;;;;;;;;;20.00;57.40;;;;;;4990324;28;1296;-72
2021/12/16 03:58:55;;;;;;;;;;;20.00;57.40;;;;;;5005198;28;1964;-72
2021/12/16 04:01:22;;;;;;;;;;;20.00;57.40;;;;;;5003780;28;1266;-73
2021/12/16 04:03:49;;;;;;;;;;;20.00;57.40;;;;;;5004166;28;1205;-72
2021/12/16 04:06:15;;;;;;;;;;;20.00;57.40;;;;;;5005124;28;1288;-72
2021/12/16 04:08:40;;;;;;;;;;;20.00;57.40;;;;;;5004528;28;1519;-72
2021/12/16 04:11:10;;;;;;;;;;;20.00;57.30;;;;;;5005967;28;1339;-71
2021/12/16 04:13:42;;;;;;;;;;;20.00;57.30;;;;;;5004691;28;1383;-71
2021/12/16 04:16:07;;;;;;;;;;;20.00;57.40;;;;;;4992847;28;1217;-73
2021/12/16 04:18:33;;;;;;;;;;;20.00;57.30;;;;;;5003141;28;1994;-72
2021/12/16 04:20:58;;;;;;;;;;;20.00;57.30;;;;;;5007041;28;1237;-70
2021/12/16 04:23:24;;;;;;;;;;;20.00;57.30;;;;;;5002981;28;1375;-71
2021/12/16 04:25:49;;;;;;;;;;;20.00;57.30;;;;;;5004247;28;1288;-71
2021/12/16 04:28:16;;;;;;;;;;;20.00;57.30;;;;;;5003989;28;1365;-71
2021/12/16 04:30:42;;;;;;;;;;;20.00;57.30;;;;;;4990710;28;1375;-72
2021/12/16 04:33:07;;;;;;;;;;;20.00;57.30;;;;;;5005607;28;1313;-74
2021/12/16 04:35:33;;;;;;;;;;;20.00;57.30;;;;;;5006267;28;1236;-71
2021/12/16 04:37:58;;;;;;;;;;;20.00;57.30;;;;;;5003080;28;1898;-73
2021/12/16 04:40:26;;;;;;;;;;;20.00;57.20;;;;;;5005102;28;1337;-72
2021/12/16 04:42:58;;;;;;;;;;;20.00;57.20;;;;;;5004513;28;1299;-71
2021/12/16 04:45:23;;;;;;;;;;;20.00;57.20;;;;;;5003957;28;1196;-73
2021/12/16 04:47:49;;;;;;;;;;;20.00;57.20;;;;;;5003721;28;1161;-73
2021/12/16 04:50:15;;;;;;;;;;;20.00;57.20;;;;;;4991475;28;1452;-73
2021/12/16 04:52:40;;;;;;;;;;;20.00;57.20;;;;;;5004239;28;1296;-72
2021/12/16 04:55:06;;;;;;;;;;;20.10;57.20;;;;;;5001535;28;1346;-72
2021/12/16 04:57:31;;;;;;;;;;;20.00;57.20;;;;;;5002760;28;1894;-73
2021/12/16 04:59:57;;;;;;;;;;;20.00;57.20;;;;;;5004511;28;1296;-71
2021/12/16 05:02:23;;;;;;;;;;;20.00;57.20;;;;;;4994201;28;1315;-70
2021/12/16 05:04:48;;;;;;;;;;;20.10;57.20;;;;;;4991158;28;1248;-71
2021/12/16 05:07:13;;;;;;;;;;;20.00;57.20;;;;;;5002521;28;1410;-73
2021/12/16 05:12:17;;;;;;;;;;;20.10;57.20;;;;;;5003534;28;1333;-72
2021/12/16 05:14:43;;;;;;;;;;;20.00;57.10;;;;;;4992928;28;1684;-71
2021/12/16 05:17:22;;;;;;;;;;;20.00;57.20;;;;;;5007780;28;1910;-72
2021/12/16 05:19:50;;;;;;;;;;;20.10;57.20;;;;;;5005955;28;1232;-70
2021/12/16 05:24:13;;;;;;;;;;;20.00;57.10;;;;;;5008213;28;1826;-70
2021/12/16 05:25:01;;;;;;;;;;;20.10;57.20;;;;;;5004833;28;1397;-73
2021/12/16 05:27:27;;;;;;;;;;;20.10;57.20;;;;;;4995701;28;1348;-70
2021/12/16 05:29:52;;;;;;;;;;;20.10;57.20;;;;;;4997146;28;1430;-71
2021/12/16 05:32:18;;;;;;;;;;;20.10;57.20;;;;;;5000233;28;1859;-71
2021/12/16 05:34:43;;;;;;;;;;;20.10;57.20;;;;;;5016620;28;1559;-71
2021/12/16 05:37:09;;;;;;;;;;;20.10;57.20;;;;;;5016155;28;1965;-73
2021/12/16 05:39:34;;;;;;;;;;;20.10;57.20;;;;;;4997185;28;1571;-72
2021/12/16 05:42:00;;;;;;;;;;;20.10;57.10;;;;;;4996806;28;1247;-71
2021/12/16 05:44:25;;;;;;;;;;;20.10;57.20;;;;;;4996887;28;1388;-73
2021/12/16 05:46:51;;;;;;;;;;;20.10;57.20;;;;;;4996468;28;1573;-73
2021/12/16 05:49:16;;;;;;;;;;;20.10;57.10;;;;;;4996663;28;1681;-72
2021/12/16 05:51:42;;;;;;;;;;;20.10;57.10;;;;;;4996419;28;1685;-73
2021/12/16 05:54:07;;;;;;;;;;;20.10;57.10;;;;;;4996774;28;1642;-74
2021/12/16 05:56:33;;;;;;;;;;;20.10;57.10;;;;;;4996405;28;1115;-73
2021/12/16 05:58:59;;;;;;;;;;;20.10;57.10;;;;;;4996475;28;1890;-71
2021/12/16 06:01:25;;;;;;;;;;;20.10;57.10;;;;;;5004612;28;1350;-72
2021/12/16 06:03:52;;;;;;;;;;;20.10;57.10;;;;;;4997059;28;1245;-73
2021/12/16 06:06:17;;;;;;;;;;;20.10;57.20;;;;;;4996064;28;1335;-72
2021/12/16 06:08:43;;;;;;;;;;;20.10;57.10;;;;;;4993520;28;1651;-73
2021/12/16 06:11:20;;;;;;;;;;;20.10;57.10;;;;;;4998573;28;1266;-73
2021/12/16 06:13:56;;;;;;;;;;;20.10;57.10;;;;;;4999972;28;1674;-72
2021/12/16 06:27:22;;;;;;;;;;;20.10;57.10;;;;;;5002796;28;1070;-72
2021/12/16 06:29:48;;;;;;;;;;;20.10;57.10;;;;;;5005526;28;1121;-72
2021/12/16 06:32:13;;;;;;;;;;;20.10;57.10;;;;;;5005974;28;1311;-72
2021/12/16 06:34:39;;;;;;;;;;;20.10;57.10;;;;;;5006096;28;1299;-71
2021/12/16 06:37:04;;;;;;;;;;;20.10;57.10;;;;;;5006907;28;1457;-71
2021/12/16 06:39:30;;;;;;;;;;;20.10;57.10;;;;;;5005111;28;1958;-69
2021/12/16 06:41:55;;;;;;;;;;;20.10;57.10;;;;;;5007778;28;1292;-73
2021/12/16 06:44:26;;;;;;;;;;;20.10;57.10;;;;;;5005416;28;1083;-72
2021/12/16 06:46:56;;;;;;;;;;;20.10;57.10;;;;;;5007733;28;1051;-72
2021/12/16 06:49:23;;;;;;;;;;;20.10;57.10;;;;;;5005963;28;1678;-70
2021/12/16 06:51:53;;;;;;;;;;;20.10;57.10;;;;;;5006664;28;1385;-71
2021/12/16 06:54:29;;;;;;;;;;;20.10;57.10;;;;;;5005926;28;1425;-72
2021/12/16 06:59:34;;;;;;;;;;;20.10;57.10;;;;;;5005690;28;1961;-71
2021/12/16 07:02:09;;;;;;;;;;;20.10;57.10;;;;;;5004617;28;1362;-73
2021/12/16 07:04:34;;;;;;;;;;;20.10;57.10;;;;;;5005521;28;1378;-73
2021/12/16 07:07:00;;;;;;;;;;;20.10;57.10;;;;;;5004046;28;1184;-73
2021/12/16 07:09:25;;;;;;;;;;;20.10;57.10;;;;;;5006153;28;1212;-73
2021/12/16 07:11:52;;;;;;;;;;;20.10;57.10;;;;;;5003964;28;1525;-71
2021/12/16 07:14:19;;;;;;;;;;;20.10;57.10;;;;;;4991713;28;1499;-73
2021/12/16 07:16:46;;;;;;;;;;;20.10;57.10;;;;;;5005160;28;1287;-72
2021/12/16 07:19:11;;;;;;;;;;;20.10;57.10;;;;;;5007147;28;1906;-72
2021/12/16 07:21:38;;;;;;;;;;;20.10;57.10;;;;;;5004495;28;1467;-71
2021/12/16 07:24:10;;;;;;;;;;;20.10;57.10;;;;;;5012266;28;1180;-71
2021/12/16 07:26:36;;;;;;;;;;;20.10;57.00;;;;;;4994735;28;1277;-71
2021/12/16 07:29:02;;;;;;;;;;;20.10;57.10;;;;;;4982820;28;1587;-70
2021/12/16 07:31:28;;;;;;;;;;;20.10;57.10;;;;;;5010017;28;1422;-70
2021/12/16 07:33:53;;;;;;;;;;;20.10;57.10;;;;;;5007360;28;1575;-71
2021/12/16 07:36:19;;;;;;;;;;;20.10;57.00;;;;;;5012006;28;1657;-72
2021/12/16 07:38:45;;;;;;;;;;;20.10;57.00;;;;;;4994815;28;1948;-72
2021/12/16 07:41:10;;;;;;;;;;;20.20;57.00;;;;;;4994691;28;1378;-72
2021/12/16 07:43:57;;;;;;;;;;;20.30;57.00;;;;;;4995070;28;1720;-72
2021/12/16 07:46:22;;;;;;;;;;;20.30;56.80;;;;;;4994283;28;1811;-73
2021/12/16 07:48:47;;;;;;;;;;;20.40;56.70;;;;;;4994759;28;1583;-72
2021/12/16 07:51:13;;;;;;;;;;;20.50;56.60;;;;;;4991059;28;1432;-72
2021/12/16 07:53:38;;;;;;;;;;;20.60;56.40;;;;;;5005444;28;1718;-72
2021/12/16 07:56:06;;;;;;;;;;;20.60;56.20;;;;;;5013845;28;1645;-73
2021/12/16 07:58:32;;;;;;;;;;;20.70;56.10;;;;;;4996636;28;1907;-71
2021/12/16 08:00:57;;;;;;;;;;;20.80;55.90;;;;;;5000991;28;1655;-71
2021/12/16 08:03:23;;;;;;;;;;;20.90;55.70;;;;;;4996321;28;1387;-72
2021/12/16 08:05:54;;;;;;;;;;;21.00;55.60;;;;;;4995989;28;1490;-73
2021/12/16 08:08:19;;;;;;;;;;;21.00;55.40;;;;;;4979795;28;1418;-73
2021/12/16 08:10:45;;;;;;;;;;;21.10;55.30;;;;;;5013759;28;1507;-72
2021/12/16 08:13:10;;;;;;;;;;;21.10;55.20;;;;;;5014075;28;1338;-71
2021/12/16 08:15:35;;;;;;;;;;;21.20;55.10;;;;;;5013639;28;1668;-71
2021/12/16 08:18:01;;;;;;;;;;;21.20;55.00;;;;;;5013509;28;1956;-71
2021/12/16 08:20:26;;;;;;;;;;;21.30;54.90;;;;;;5013660;28;1511;-70
2021/12/16 08:22:52;;;;;;;;;;;21.30;54.80;;;;;;5013658;28;1658;-71
2021/12/16 08:25:18;;;;;;;;;;;21.30;54.80;;;;;;4996147;28;1441;-70
2021/12/16 08:27:44;;;;;;;;;;;21.40;54.70;;;;;;5002374;28;1664;-71
2021/12/16 08:30:10;;;;;;;;;;;21.40;54.70;;;;;;4993899;28;1357;-71
2021/12/16 08:32:35;;;;;;;;;;;21.40;54.70;;;;;;4999249;28;1409;-70
2021/12/16 08:35:01;;;;;;;;;;;21.40;54.60;;;;;;4995945;28;1359;-70
2021/12/16 08:37:26;;;;;;;;;;;21.40;54.60;;;;;;5002095;28;1894;-71
2021/12/16 08:39:52;;;;;;;;;;;21.50;54.60;;;;;;4993627;28;1412;-71
2021/12/16 08:42:18;;;;;;;;;;;21.50;54.60;;;;;;5013212;28;1652;-72
2021/12/16 08:44:43;;;;;;;;;;;21.50;54.60;;;;;;5008989;28;1705;-72
2021/12/16 08:47:11;;;;;;;;;;;21.50;54.50;;;;;;4992888;28;1645;-72
2021/12/16 08:49:36;;;;;;;;;;;21.50;54.60;;;;;;4993675;28;1699;-70
2021/12/16 08:52:04;;;;;;;;;;;21.50;54.50;;;;;;4976858;28;1448;-70
2021/12/16 08:54:30;;;;;;;;;;;21.50;54.50;;;;;;4993622;28;1708;-70
2021/12/16 08:56:56;;;;;;;;;;;21.50;54.50;;;;;;4983164;28;1286;-71
2021/12/16 08:59:24;;;;;;;;;;;21.50;54.50;;;;;;5010592;28;1898;-71
2021/12/16 09:01:50;;;;;;;;;;;21.40;54.50;;;;;;4995512;28;1379;-71
2021/12/16 09:04:16;;;;;;;;;;;21.40;54.50;;;;;;4990723;28;1196;-70
2021/12/16 09:06:42;;;;;;;;;;;21.40;54.60;;;;;;5004373;28;1081;-70
2021/12/16 09:09:07;;;;;;;;;;;21.40;54.60;;;;;;5008131;28;1385;-71
2021/12/16 09:11:38;;;;;;;;;;;21.40;54.70;;;;;;5012528;28;1288;-70
2021/12/16 09:14:03;;;;;;;;;;;21.40;54.70;;;;;;5013021;28;1375;-73
2021/12/16 09:16:29;;;;;;;;;;;21.40;54.80;;;;;;5012623;28;1284;-70
2021/12/16 09:18:55;;;;;;;;;;;21.40;54.90;;;;;;4999690;28;1906;-70
2021/12/16 09:21:24;;;;;;;;;;;21.30;54.80;;;;;;5012794;28;1307;-71
2021/12/16 09:23:50;;;;;;;;;;;21.30;54.80;;;;;;4996054;28;1440;-70
2021/12/16 09:26:15;;;;;;;;;;;21.30;54.90;;;;;;5000592;28;1324;-71
2021/12/16 09:28:41;;;;;;;;;;;21.30;54.90;;;;;;4993250;28;1167;-71
2021/12/16 09:31:10;;;;;;;;;;;21.30;55.00;;;;;;5004900;28;1147;-69
2021/12/16 09:33:36;;;;;;;;;;;21.30;55.00;;;;;;5005835;28;1375;-70
2021/12/16 09:36:02;;;;;;;;;;;21.30;55.00;;;;;;5006429;28;1160;-69
2021/12/16 09:38:28;;;;;;;;;;;21.20;55.10;;;;;;4991918;28;1971;-70
2021/12/16 09:40:54;;;;;;;;;;;21.30;55.10;;;;;;5003499;28;1344;-69
2021/12/16 09:43:30;;;;;;;;;;;21.20;55.10;;;;;;4995247;28;1378;-69
2021/12/16 09:45:57;;;;;;;;;;;21.20;55.10;;;;;;4999282;28;1283;-69
2021/12/16 09:48:22;;;;;;;;;;;21.20;55.20;;;;;;5005720;28;1084;-70
2021/12/16 09:50:48;;;;;;;;;;;21.20;55.20;;;;;;4988748;28;1093;-70
2021/12/16 09:53:13;;;;;;;;;;;21.20;55.30;;;;;;4975594;28;1213;-69
2021/12/16 09:55:39;;;;;;;;;;;21.20;55.30;;;;;;4991419;28;1282;-68
2021/12/16 09:58:05;;;;;;;;;;;21.10;55.30;;;;;;5010884;28;1902;-69
2021/12/16 10:00:31;;;;;;;;;;;21.20;55.30;;;;;;4998740;28;1309;-69
2021/12/16 10:02:57;;;;;;;;;;;21.20;55.40;;;;;;4998389;28;1308;-69
2021/12/16 10:05:22;;;;;;;;;;;21.10;55.40;;;;;;5002002;28;1136;-69
2021/12/16 10:07:48;;;;;;;;;;;21.10;55.40;;;;;;5001449;28;2187;-69
2021/12/16 10:10:17;;;;;;;;;;;21.10;55.40;;;;;;5006034;28;1155;-68
2021/12/16 10:12:45;;;;;;;;;;;21.10;55.50;;;;;;4996385;28;1346;-69
2021/12/16 10:18:01;;;;;;;;;;;21.10;55.50;;;;;;5006724;28;1911;-71
2021/12/16 10:20:27;;;;;;;;;;;21.10;55.50;;;;;;4997967;28;1402;-68
2021/12/16 10:23:09;;;;;;;;;;;21.00;55.60;;;;;;4998087;28;1705;-68
2021/12/16 10:25:51;;;;;;;;;;;21.00;55.60;;;;;;5014407;28;1152;-69
2021/12/16 10:28:17;;;;;;;;;;;21.00;55.60;;;;;;4995572;28;1273;-69
2021/12/16 10:30:49;;;;;;;;;;;21.00;55.70;;;;;;4996075;28;1289;-69
2021/12/16 10:33:15;;;;;;;;;;;21.00;55.70;;;;;;5006514;28;1374;-68
2021/12/16 10:35:41;;;;;;;;;;;21.00;55.80;;;;;;5015305;28;1331;-69
2021/12/16 10:38:07;;;;;;;;;;;21.00;55.80;;;;;;4997766;28;1960;-69
2021/12/16 10:40:40;;;;;;;;;;;21.00;55.80;;;;;;4997983;28;1140;-69
2021/12/16 10:43:08;;;;;;;;;;;21.00;55.80;;;;;;4997937;28;1348;-70
2021/12/16 10:45:36;;;;;;;;;;;21.00;55.70;;;;;;4986001;28;1353;-70
2021/12/16 10:48:05;;;;;;;;;;;21.00;55.70;;;;;;5013263;28;1348;-69
2021/12/16 10:50:45;;;;;;;;;;;21.10;55.60;;;;;;4997508;28;1343;-69
2021/12/16 10:53:10;;;;;;;;;;;21.10;55.60;;;;;;5015189;28;1256;-68
2021/12/16 10:55:35;;;;;;;;;;;21.10;55.50;;;;;;4997100;28;1356;-71
2021/12/16 10:58:01;;;;;;;;;;;21.20;55.50;;;;;;4994950;28;1898;-69
2021/12/16 11:00:27;;;;;;;;;;;21.20;55.40;;;;;;4994589;28;1306;-70
2021/12/16 11:02:53;;;;;;;;;;;21.20;55.30;;;;;;5014991;28;1301;-69
2021/12/16 11:05:19;;;;;;;;;;;21.20;55.30;;;;;;5001655;28;1052;-70
2021/12/16 11:07:45;;;;;;;;;;;21.30;55.30;;;;;;5014782;28;1308;-69
2021/12/16 11:10:11;;;;;;;;;;;21.20;55.20;;;;;;4993985;28;1255;-69
2021/12/16 11:12:42;;;;;;;;;;;21.30;55.20;;;;;;5014647;28;1327;-69
2021/12/16 11:15:24;;;;;;;;;;;21.30;55.20;;;;;;5014722;28;1256;-69
2021/12/16 11:17:51;;;;;;;;;;;21.30;55.10;;;;;;4996894;28;1914;-69
2021/12/16 11:20:43;;;;;;;;;;;21.30;55.10;;;;;;4997214;28;1408;-69
2021/12/16 11:23:08;;;;;;;;;;;21.30;55.10;;;;;;4973142;28;1403;-69
2021/12/16 11:25:44;;;;;;;;;;;21.30;55.10;;;;;;5014675;28;1319;-68
2021/12/16 11:28:11;;;;;;;;;;;21.30;55.10;;;;;;5014400;28;1323;-68
2021/12/16 11:30:39;;;;;;;;;;;21.30;55.10;;;;;;5014460;28;1317;-69
2021/12/16 11:33:09;;;;;;;;;;;21.30;55.10;;;;;;5011652;28;2035;-69
2021/12/16 11:35:36;;;;;;;;;;;21.30;55.20;;;;;;5007928;28;1245;-70
2021/12/16 11:38:09;;;;;;;;;;;21.30;55.20;;;;;;4997995;28;1958;-69
2021/12/16 11:40:54;;;;;;;;;;;21.30;55.20;;;;;;4996944;28;1065;-69
2021/12/16 11:43:29;;;;;;;;;;;21.20;55.20;;;;;;5000284;28;1361;-70
2021/12/16 11:45:55;;;;;;;;;;;21.30;55.20;;;;;;5012585;28;1076;-70
2021/12/16 11:48:27;;;;;;;;;;;21.20;54.70;;;;;;4993264;28;1069;-69
2021/12/16 11:51:00;;;;;;;;;;;21.20;53.90;;;;;;4993477;28;1383;-70
2021/12/16 11:53:33;;;;;;;;;;;21.20;54.00;;;;;;4993231;28;1336;-69
2021/12/16 11:55:58;;;;;;;;;;;21.20;53.20;;;;;;4991315;28;1321;-69
2021/12/16 11:58:28;;;;;;;;;;;21.20;52.50;;;;;;5013559;28;1898;-69
2021/12/16 12:00:53;;;;;;;;;;;21.20;52.40;;;;;;5013767;28;1324;-70
2021/12/16 12:03:19;;;;;;;;;;;21.20;52.20;;;;;;5013664;28;1196;-69
2021/12/16 12:05:45;;;;;;;;;;;21.10;51.60;;;;;;5013111;28;1399;-71
2021/12/16 12:08:10;;;;;;;;;;;21.10;52.20;;;;;;5012075;28;1307;-70
2021/12/16 12:10:43;;;;;;;;;;;21.10;52.30;;;;;;4995372;28;1362;-68
2021/12/16 12:13:13;;;;;;;;;;;21.10;52.30;;;;;;4995552;28;1761;-69
2021/12/16 12:15:52;;;;;;;;;;;21.10;52.50;;;;;;4994845;28;1516;-69
2021/12/16 12:18:31;;;;;;;;;;;21.10;52.60;;;;;;4994031;28;1962;-70
2021/12/16 12:21:13;;;;;;;;;;;21.10;52.70;;;;;;4993893;28;1335;-70
2021/12/16 12:23:39;;;;;;;;;;;21.20;52.90;;;;;;5003498;28;1457;-69
2021/12/16 12:26:04;;;;;;;;;;;21.20;53.00;;;;;;4995596;28;1337;-70
2021/12/16 12:28:29;;;;;;;;;;;21.10;53.00;;;;;;4996400;28;1792;-70
2021/12/16 12:30:55;;;;;;;;;;;21.10;53.10;;;;;;4992873;28;1201;-70
2021/12/16 12:33:20;;;;;;;;;;;21.20;53.20;;;;;;5004771;28;1941;-70
2021/12/16 12:35:46;;;;;;;;;;;21.20;53.30;;;;;;5010116;28;1621;-70
2021/12/16 12:38:11;;;;;;;;;;;21.20;53.30;;;;;;5005331;28;1894;-72
2021/12/16 12:40:38;;;;;;;;;;;21.20;53.40;;;;;;5002684;28;1546;-71
2021/12/16 12:43:04;;;;;;;;;;;21.20;53.40;;;;;;5002524;28;1633;-71
2021/12/16 12:45:32;;;;;;;;;;;21.10;53.40;;;;;;5013376;28;1684;-70
2021/12/16 12:47:58;;;;;;;;;;;21.20;53.50;;;;;;5012883;28;1661;-71
2021/12/16 12:50:30;;;;;;;;;;;21.20;53.60;;;;;;5004882;28;1388;-71
2021/12/16 12:52:56;;;;;;;;;;;21.20;53.60;;;;;;5008664;28;1696;-72
2021/12/16 12:55:29;;;;;;;;;;;21.10;53.70;;;;;;4992418;28;1718;-71
2021/12/16 12:58:04;;;;;;;;;;;21.20;53.80;;;;;;4993125;28;1920;-69
2021/12/16 13:00:33;;;;;;;;;;;21.10;53.80;;;;;;4994217;28;1641;-72
2021/12/16 13:02:59;;;;;;;;;;;21.10;53.80;;;;;;5013020;28;1589;-70
2021/12/16 13:05:24;;;;;;;;;;;21.10;53.90;;;;;;5013200;28;1625;-70
2021/12/16 13:07:54;;;;;;;;;;;21.10;54.00;;;;;;5012891;28;1638;-71
2021/12/16 13:10:21;;;;;;;;;;;21.10;54.00;;;;;;5008764;28;1618;-72
2021/12/16 13:12:57;;;;;;;;;;;21.10;54.10;;;;;;4995319;28;1606;-69
2021/12/16 13:15:29;;;;;;;;;;;21.10;54.10;;;;;;4996555;28;1218;-68
2021/12/16 13:23:37;;;;;;;;;;;21.10;54.20;;;;;;4993880;28;1763;-70
2021/12/16 13:28:56;;;;;;;;;;;21.10;54.30;;;;;;4997195;28;1625;-69
2021/12/16 13:32:09;;;;;;;;;;;21.00;54.30;;;;;;4995129;28;1355;-68
2021/12/16 13:34:36;;;;;;;;;;;21.00;54.30;;;;;;5007268;28;1616;-70
2021/12/16 13:37:14;;;;;;;;;;;21.00;54.30;;;;;;5016359;28;1259;-70
2021/12/16 13:39:43;;;;;;;;;;;21.00;54.30;;;;;;5000286;28;1898;-69
2021/12/16 13:42:13;;;;;;;;;;;21.00;54.40;;;;;;4986411;28;1587;-69
2021/12/16 13:44:42;;;;;;;;;;;21.00;54.40;;;;;;5012848;28;1752;-69
2021/12/16 13:47:22;;;;;;;;;;;21.00;54.50;;;;;;4998942;28;1576;-68
2021/12/16 13:58:37;;;;;;;;;;;21.00;54.70;;;;;;5016247;28;1965;-68
2021/12/16 14:01:27;;;;;;;;;;;20.90;54.60;;;;;;5014766;28;1693;-67
2021/12/16 14:04:35;;;;;;;;;;;21.00;54.70;;;;;;5016214;28;1632;-67
2021/12/16 14:06:58;;;;;;;;;;;20.90;54.70;;;;;;5015479;28;1058;-68
2021/12/16 14:09:27;;;;;;;;;;;20.90;54.80;;;;;;4995442;28;1435;-70
2021/12/16 14:12:54;;;;;;;;;;;20.90;54.80;;;;;;5008087;28;1589;-69
2021/12/16 14:17:39;;;;;;;;;;;20.90;54.90;;;;;;4996033;28;1389;-68
2021/12/16 14:23:12;;;;;;;;;;;20.90;54.90;;;;;;4996018;28;1324;-69
2021/12/16 14:26:08;;;;;;;;;;;20.90;55.00;;;;;;4995785;28;1260;-69
2021/12/16 14:49:34;;;;;;;;;;;20.80;55.20;;;;;;5011710;28;1430;-70
2021/12/16 14:52:00;;;;;;;;;;;20.80;55.20;;;;;;5004455;28;1676;-70
2021/12/16 14:54:26;;;;;;;;;;;20.80;55.30;;;;;;4995545;28;1069;-70
2021/12/16 14:56:57;;;;;;;;;;;20.80;55.30;;;;;;4995386;28;1045;-69
2021/12/16 14:59:22;;;;;;;;;;;20.80;55.30;;;;;;4995335;28;1952;-69
2021/12/16 15:01:49;;;;;;;;;;;20.80;55.30;;;;;;4989032;28;1378;-69
2021/12/16 15:04:16;;;;;;;;;;;20.70;55.30;;;;;;5015021;28;1350;-69
2021/12/16 15:06:54;;;;;;;;;;;20.70;55.30;;;;;;5014951;28;1273;-69
2021/12/16 15:09:28;;;;;;;;;;;20.70;55.40;;;;;;5010466;28;1040;-68
2021/12/16 15:12:00;;;;;;;;;;;20.70;55.40;;;;;;4996954;28;1216;-68
2021/12/16 15:14:49;;;;;;;;;;;20.70;55.50;;;;;;4983184;28;1291;-69
2021/12/16 15:35:43;;;;;;;;;;;20.70;55.60;;;;;;4993804;28;1144;-70
2021/12/16 15:39:53;;;;;;;;;;;20.70;55.70;;;;;;5014148;28;1910;-68
2021/12/16 15:45:15;;;;;;;;;;;20.70;55.70;;;;;;5014086;28;981;-68
2021/12/16 15:47:41;;;;;;;;;;;20.60;55.70;;;;;;4994557;28;1359;-69
2021/12/16 15:50:08;;;;;;;;;;;20.70;55.70;;;;;;4994513;28;1068;-67
2021/12/16 15:52:43;;;;;;;;;;;20.60;55.70;;;;;;4994436;28;1393;-68
2021/12/16 15:55:14;;;;;;;;;;;20.60;55.70;;;;;;4983346;28;1065;-68
2021/12/16 15:57:40;;;;;;;;;;;20.60;55.70;;;;;;5005705;28;2339;-68
2021/12/16 16:00:07;;;;;;;;;;;20.60;55.70;;;;;;5001928;28;1109;-68
2021/12/16 16:02:32;;;;;;;;;;;20.60;55.90;;;;;;5010620;28;1366;-68
2021/12/16 16:05:00;;;;;;;;;;;20.60;55.80;;;;;;4993054;28;1141;-69
2021/12/16 16:07:26;;;;;;;;;;;20.60;55.80;;;;;;4993405;28;1284;-68
2021/12/16 16:09:52;;;;;;;;;;;20.60;55.80;;;;;;5008085;28;1163;-68
2021/12/16 16:12:18;;;;;;;;;;;20.60;55.80;;;;;;5013476;28;1329;-68
2021/12/16 16:14:49;;;;;;;;;;;20.60;55.80;;;;;;4992658;28;899;-67
2021/12/16 16:17:18;;;;;;;;;;;20.60;55.80;;;;;;5010695;28;1585;-67
2021/12/16 16:19:44;;;;;;;;;;;20.60;55.90;;;;;;5001517;28;1976;-68
2021/12/16 16:22:09;;;;;;;;;;;20.60;55.90;;;;;;4991261;28;1378;-68
2021/12/16 16:24:39;;;;;;;;;;;20.60;55.90;;;;;;5004600;28;1288;-67
2021/12/16 16:27:05;;;;;;;;;;;20.60;55.90;;;;;;4999923;28;1300;-67
2021/12/16 16:29:31;;;;;;;;;;;20.60;55.90;;;;;;5012589;28;1357;-66
2021/12/16 16:31:57;;;;;;;;;;;20.60;55.90;;;;;;5012905;28;1346;-67
2021/12/16 16:34:23;;;;;;;;;;;20.60;55.90;;;;;;5006558;28;1061;-66
2021/12/16 16:36:52;;;;;;;;;;;20.60;55.90;;;;;;5012906;28;1322;-66
2021/12/16 16:39:20;;;;;;;;;;;20.60;55.90;;;;;;5013373;28;1906;-68
2021/12/16 16:41:49;;;;;;;;;;;20.60;55.90;;;;;;4995313;28;1389;-68
2021/12/16 16:44:15;;;;;;;;;;;20.60;55.90;;;;;;4999658;28;1327;-67
2021/12/16 16:46:47;;;;;;;;;;;20.60;56.00;;;;;;4979498;28;1274;-67
2021/12/16 16:49:24;;;;;;;;;;;20.60;56.00;;;;;;5008219;28;1273;-69
2021/12/16 16:51:49;;;;;;;;;;;20.60;56.00;;;;;;5012963;28;1300;-67
2021/12/16 16:54:18;;;;;;;;;;;20.60;56.10;;;;;;5013058;28;1347;-69
2021/12/16 16:56:45;;;;;;;;;;;20.60;56.00;;;;;;5012534;28;1260;-67
2021/12/16 16:59:11;;;;;;;;;;;20.60;56.00;;;;;;5013377;28;1902;-67
2021/12/16 17:01:37;;;;;;;;;;;20.60;56.60;;;;;;5012852;28;1324;-69
2021/12/16 17:04:03;;;;;;;;;;;20.60;56.00;;;;;;5012365;28;2015;-69
2021/12/16 17:06:30;;;;;;;;;;;20.60;56.10;;;;;;5010865;28;1926;-67
2021/12/16 17:08:56;;;;;;;;;;;20.60;56.10;;;;;;5004967;28;1297;-70
2021/12/16 17:11:22;;;;;;;;;;;20.60;56.00;;;;;;5001998;28;1004;-69
2021/12/16 17:18:46;;;;;;;;;;;20.60;56.20;;;;;;4999835;28;1902;-69
2021/12/16 17:21:16;;;;;;;;;;;20.60;56.10;;;;;;4987078;28;1290;-69
2021/12/16 17:23:42;;;;;;;;;;;20.50;56.10;;;;;;5014963;28;1306;-69
2021/12/16 17:26:27;;;;;;;;;;;20.50;56.10;;;;;;5016853;28;1280;-69
2021/12/16 17:28:57;;;;;;;;;;;20.50;56.10;;;;;;5016839;28;1315;-69
2021/12/16 17:31:32;;;;;;;;;;;20.60;56.70;;;;;;5009488;28;1609;-69
2021/12/16 17:34:12;;;;;;;;;;;20.50;56.10;;;;;;5007645;28;1313;-69
2021/12/16 17:36:42;;;;;;;;;;;20.50;56.10;;;;;;5013277;28;1284;-68
2021/12/16 17:39:08;;;;;;;;;;;20.50;56.10;;;;;;4998970;28;1957;-67
2021/12/16 17:41:33;;;;;;;;;;;20.50;56.10;;;;;;4998630;28;1366;-68
2021/12/16 17:43:59;;;;;;;;;;;20.50;56.10;;;;;;5005323;28;1092;-67
2021/12/16 17:46:24;;;;;;;;;;;20.50;56.10;;;;;;4996446;28;1352;-69
2021/12/16 17:48:50;;;;;;;;;;;20.60;56.20;;;;;;4996681;28;1343;-68
2021/12/16 17:51:17;;;;;;;;;;;20.60;56.20;;;;;;4996638;28;1371;-68
2021/12/16 17:53:47;;;;;;;;;;;20.50;56.10;;;;;;4987722;28;1314;-68
2021/12/16 17:56:12;;;;;;;;;;;20.50;56.20;;;;;;5014641;28;1324;-67
2021/12/16 17:58:38;;;;;;;;;;;20.50;56.10;;;;;;5015948;28;1898;-67